createdAt,value
2022-11-29T00:01:06.879Z,14.68
2022-11-29T00:03:34.529Z,15.07
2022-11-29T00:06:10.776Z,17.55
2022-11-29T00:08:37.489Z,14.85
2022-11-29T00:11:35.619Z,18.30
2022-11-29T00:14:02.336Z,15.60
2022-11-29T00:16:29.273Z,16.98
2022-11-29T00:18:55.961Z,18.25
2022-11-29T00:21:22.383Z,15.38
2022-11-29T00:23:49.160Z,19.27
2022-11-29T00:26:15.628Z,18.95
2022-11-29T00:28:42.303Z,17.13
2022-11-29T00:31:21.403Z,20.17
2022-11-29T00:33:48.712Z,18.48
2022-11-29T00:36:16.165Z,17.73
2022-11-29T00:38:42.798Z,16.52
2022-11-29T00:41:10.291Z,17.95
2022-11-29T00:43:36.852Z,20.05
2022-11-29T00:46:03.654Z,18.75
2022-11-29T00:48:30.775Z,21.65
2022-11-29T00:50:57.314Z,21.20
2022-11-29T00:53:24.278Z,18.92
2022-11-29T00:55:51.902Z,16.08
2022-11-29T00:58:19.957Z,17.23
2022-11-29T01:00:47.605Z,17.90
2022-11-29T01:03:15.350Z,14.98
2022-11-29T01:05:42.868Z,20.55
2022-11-29T01:08:10.398Z,18.23
2022-11-29T01:10:36.953Z,18.23
2022-11-29T01:13:03.413Z,17.63
2022-11-29T01:15:30.118Z,21.30
2022-11-29T01:17:56.715Z,18.33
2022-11-29T01:20:23.248Z,16.80
2022-11-29T01:22:49.656Z,16.02
2022-11-29T01:25:19.175Z,20.15
2022-11-29T01:27:46.389Z,17.35
2022-11-29T01:30:13.758Z,18.15
2022-11-29T01:32:40.252Z,15.30
2022-11-29T01:35:07.229Z,19.83
2022-11-29T01:37:33.741Z,15.98
2022-11-29T01:40:00.204Z,19.15
2022-11-29T01:42:26.657Z,18.55
2022-11-29T01:45:25.748Z,17.58
2022-11-29T01:47:56.585Z,18.83
2022-11-29T01:50:23.368Z,15.85
2022-11-29T01:52:49.880Z,17.88
2022-11-29T01:55:18.987Z,15.95
2022-11-29T01:57:45.887Z,19.25
2022-11-29T02:00:15.750Z,16.52
2022-11-29T02:02:45.508Z,16.50
2022-11-29T02:05:14.832Z,17.95
2022-11-29T02:07:45.678Z,15.68
2022-11-29T02:10:13.270Z,18.15
2022-11-29T02:13:15.194Z,14.02
2022-11-29T02:16:03.672Z,14.73
2022-11-29T02:18:52.291Z,18.58
2022-11-29T02:21:30.727Z,12.45
2022-11-29T02:24:15.929Z,15.30
2022-11-29T02:27:04.183Z,20.00
2022-11-29T02:30:05.698Z,18.35
2022-11-29T02:32:50.418Z,24.15
2022-11-29T02:35:33.629Z,19.07
2022-11-29T02:38:46.701Z,13.85
2022-11-29T02:41:49.021Z,16.48
2022-11-29T02:44:22.910Z,14.75
2022-11-29T02:47:02.736Z,17.70
2022-11-29T02:49:48.103Z,14.35
2022-11-29T02:52:29.406Z,19.90
2022-11-29T02:55:05.019Z,16.77
2022-11-29T02:57:36.557Z,16.65
2022-11-29T03:00:10.189Z,24.05
2022-11-29T03:02:50.539Z,18.50
2022-11-29T03:05:48.612Z,17.58
2022-11-29T03:08:31.129Z,19.48
2022-11-29T03:11:18.096Z,18.38
2022-11-29T03:13:59.824Z,17.45
2022-11-29T03:16:39.727Z,17.63
2022-11-29T03:19:18.110Z,16.23
2022-11-29T03:22:10.350Z,19.55
2022-11-29T03:24:44.870Z,19.83
2022-11-29T03:27:16.491Z,20.80
2022-11-29T03:29:56.402Z,17.33
2022-11-29T03:32:29.906Z,19.27
2022-11-29T03:34:57.539Z,19.63
2022-11-29T03:37:44.196Z,22.95
2022-11-29T03:40:29.474Z,19.02
2022-11-29T03:43:14.258Z,20.58
2022-11-29T03:45:48.934Z,20.50
2022-11-29T03:48:47.048Z,19.15
2022-11-29T03:51:23.278Z,12.75
2022-11-29T03:54:03.509Z,21.25
2022-11-29T03:56:32.937Z,18.85
2022-11-29T03:59:29.269Z,24.35
2022-11-29T04:02:02.479Z,30.25
2022-11-29T04:04:47.483Z,19.92
2022-11-29T04:07:32.969Z,19.90
2022-11-29T04:10:16.261Z,27.98
2022-11-29T04:13:16.134Z,25.13
2022-11-29T04:16:02.847Z,25.60
2022-11-29T04:18:53.806Z,22.92
2022-11-29T04:21:41.781Z,34.15
2022-11-29T04:24:08.097Z,26.35
2022-11-29T04:26:45.224Z,23.30
2022-11-29T04:29:31.574Z,28.27
2022-11-29T04:32:19.799Z,28.27
2022-11-29T04:35:05.511Z,31.20
2022-11-29T04:37:45.946Z,31.35
2022-11-29T04:40:49.890Z,35.65
2022-11-29T04:43:52.990Z,35.13
2022-11-29T04:46:31.346Z,33.35
2022-11-29T04:49:05.600Z,32.08
2022-11-29T04:51:45.423Z,28.70
2022-11-29T04:54:20.934Z,33.30
2022-11-29T04:56:51.181Z,29.95
2022-11-29T04:59:39.658Z,33.80
2022-11-29T05:02:37.172Z,33.53
2022-11-29T05:05:21.988Z,22.42
2022-11-29T05:08:04.441Z,25.10
2022-11-29T05:10:51.880Z,34.67
2022-11-29T05:13:51.605Z,32.67
2022-11-29T05:16:38.346Z,27.98
2022-11-29T05:19:25.054Z,35.35
2022-11-29T05:21:59.816Z,33.05
2022-11-29T05:24:32.259Z,30.63
2022-11-29T05:27:22.530Z,43.00
2022-11-29T05:29:51.882Z,40.03
2022-11-29T05:32:32.572Z,45.78
2022-11-29T05:35:27.619Z,53.45
2022-11-29T05:38:01.439Z,52.37
2022-11-29T05:40:53.358Z,56.55
2022-11-29T05:43:34.757Z,52.20
2022-11-29T05:46:12.709Z,56.58
2022-11-29T05:48:47.714Z,55.60
2022-11-29T05:51:14.278Z,51.28
2022-11-29T05:54:35.147Z,63.03
2022-11-29T05:57:07.400Z,46.72
2022-11-29T05:59:38.510Z,35.80
2022-11-29T06:02:12.705Z,43.10
2022-11-29T06:04:48.675Z,46.10
2022-11-29T06:07:40.037Z,34.13
2022-11-29T06:10:12.506Z,40.10
2022-11-29T06:12:40.261Z,34.75
2022-11-29T06:15:31.316Z,28.70
2022-11-29T06:18:25.846Z,35.03
2022-11-29T06:21:05.233Z,31.98
2022-11-29T06:23:53.512Z,36.95
2022-11-29T06:26:38.178Z,39.08
2022-11-29T06:29:23.819Z,43.63
2022-11-29T06:31:55.707Z,40.92
2022-11-29T06:34:38.226Z,49.65
2022-11-29T06:37:27.499Z,49.22
2022-11-29T06:39:55.387Z,36.25
2022-11-29T06:42:21.765Z,43.47
2022-11-29T06:44:48.556Z,48.63
2022-11-29T06:47:26.840Z,48.10
2022-11-29T06:50:04.206Z,42.70
2022-11-29T06:52:44.380Z,40.50
2022-11-29T06:55:19.249Z,43.08
2022-11-29T06:57:51.662Z,46.03
2022-11-29T07:00:26.995Z,40.80
2022-11-29T07:03:30.869Z,48.78
2022-11-29T07:05:58.456Z,35.17
2022-11-29T07:08:25.390Z,44.58
2022-11-29T07:10:55.483Z,37.83
2022-11-29T07:13:22.842Z,47.22
2022-11-29T07:16:14.224Z,44.08
2022-11-29T07:18:54.591Z,37.78
2022-11-29T07:21:39.143Z,54.78
2022-11-29T07:24:27.817Z,62.03
2022-11-29T07:27:10.594Z,42.50
2022-11-29T07:29:39.721Z,47.63
2022-11-29T07:32:15.138Z,47.55
2022-11-29T07:34:49.626Z,62.67
2022-11-29T07:37:34.134Z,71.85
2022-11-29T07:40:24.227Z,63.80
2022-11-29T07:42:56.317Z,52.05
2022-11-29T07:45:36.091Z,73.43
2022-11-29T07:48:02.555Z,49.15
2022-11-29T07:50:29.637Z,50.83
2022-11-29T07:52:56.860Z,66.40
2022-11-29T07:55:27.122Z,49.67
2022-11-29T07:57:53.619Z,48.35
2022-11-29T08:00:21.963Z,45.33
2022-11-29T08:02:50.037Z,58.88
2022-11-29T08:05:17.168Z,76.00
2022-11-29T08:07:43.748Z,55.60
2022-11-29T08:10:15.785Z,53.05
2022-11-29T08:12:44.541Z,42.97
2022-11-29T08:15:11.815Z,61.97
2022-11-29T08:17:39.360Z,53.67
2022-11-29T08:20:07.312Z,48.90
2022-11-29T08:22:33.857Z,66.00
2022-11-29T08:25:01.343Z,70.72
2022-11-29T08:27:27.987Z,42.00
2022-11-29T08:29:55.526Z,44.08
2022-11-29T08:32:22.013Z,72.18
2022-11-29T08:34:48.692Z,68.65
2022-11-29T08:37:15.257Z,51.33
2022-11-29T08:39:41.622Z,58.65
2022-11-29T08:42:08.212Z,75.68
2022-11-29T08:44:34.549Z,50.78
2022-11-29T08:47:19.674Z,50.70
2022-11-29T08:50:01.180Z,56.20
2022-11-29T08:52:58.384Z,50.08
2022-11-29T08:55:29.020Z,73.72
2022-11-29T08:58:02.193Z,78.13
2022-11-29T09:00:28.634Z,56.63
2022-11-29T09:02:55.277Z,47.40
2022-11-29T09:05:21.631Z,50.83
2022-11-29T09:07:48.271Z,64.57
2022-11-29T09:10:14.722Z,54.28
2022-11-29T09:12:41.338Z,85.68
2022-11-29T09:15:11.357Z,96.80
2022-11-29T09:17:38.048Z,81.50
2022-11-29T09:20:05.520Z,57.08
2022-11-29T09:22:32.101Z,58.35
2022-11-29T09:24:58.489Z,95.25
2022-11-29T09:27:25.016Z,78.28
2022-11-29T09:29:51.406Z,85.90
2022-11-29T09:32:17.925Z,76.38
2022-11-29T09:34:44.538Z,112.43
2022-11-29T09:37:11.199Z,112.65
2022-11-29T09:39:38.154Z,112.35
2022-11-29T09:42:41.982Z,109.05
2022-11-29T09:45:18.378Z,110.47
2022-11-29T09:48:17.689Z,99.15
2022-11-29T09:51:03.002Z,101.18
2022-11-29T09:54:04.155Z,109.10
2022-11-29T09:56:49.981Z,112.47
2022-11-29T09:59:32.015Z,126.72
2022-11-29T10:02:06.125Z,124.22
2022-11-29T10:04:40.335Z,112.17
2022-11-29T10:07:17.611Z,117.50
2022-11-29T10:09:48.877Z,148.60
2022-11-29T10:12:37.698Z,140.18
2022-11-29T10:15:19.240Z,131.90
2022-11-29T10:18:01.935Z,128.27
2022-11-29T10:20:35.387Z,130.80
2022-11-29T10:23:15.011Z,124.05
2022-11-29T10:25:56.653Z,147.60
2022-11-29T10:28:31.181Z,146.48
2022-11-29T10:31:14.611Z,132.00
2022-11-29T10:33:42.305Z,141.25
2022-11-29T10:36:36.529Z,125.28
2022-11-29T10:39:13.015Z,126.10
2022-11-29T10:41:40.880Z,122.25
2022-11-29T10:44:09.764Z,130.85
2022-11-29T10:46:37.034Z,113.03
2022-11-29T10:49:06.960Z,109.43
2022-11-29T10:51:34.711Z,135.18
2022-11-29T10:54:36.955Z,137.07
2022-11-29T10:57:12.627Z,110.13
2022-11-29T10:59:39.009Z,118.32
2022-11-29T11:02:18.283Z,133.13
2022-11-29T11:04:47.451Z,111.35
2022-11-29T11:07:25.648Z,111.65
2022-11-29T11:09:55.919Z,119.22
2022-11-29T11:12:27.442Z,99.40
2022-11-29T11:15:28.118Z,99.95
2022-11-29T11:17:57.678Z,90.68
2022-11-29T11:20:27.481Z,86.90
2022-11-29T11:23:27.484Z,110.45
2022-11-29T11:26:07.973Z,91.63
2022-11-29T11:28:55.068Z,98.97
2022-11-29T11:31:39.538Z,103.18
2022-11-29T11:34:30.251Z,81.85
2022-11-29T11:37:14.960Z,85.28
2022-11-29T11:39:45.418Z,75.83
2022-11-29T11:42:40.910Z,83.82
2022-11-29T11:45:10.112Z,76.60
2022-11-29T11:48:16.153Z,79.43
2022-11-29T11:50:51.128Z,73.03
2022-11-29T11:53:20.793Z,72.90
2022-11-29T11:56:00.915Z,72.20
2022-11-29T11:58:31.135Z,71.45
2022-11-29T12:01:05.019Z,94.18
2022-11-29T12:04:11.552Z,105.28
2022-11-29T12:06:53.686Z,74.63
2022-11-29T12:09:38.899Z,73.15
2022-11-29T12:12:26.459Z,82.03
2022-11-29T12:15:00.985Z,76.22
2022-11-29T12:17:39.071Z,60.30
2022-11-29T12:20:15.308Z,74.05
2022-11-29T12:22:51.526Z,74.22
2022-11-29T12:25:26.647Z,59.25
2022-11-29T12:30:19.743Z,65.05
2022-11-29T12:32:53.586Z,65.30
2022-11-29T12:35:25.661Z,57.00
2022-11-29T12:38:06.864Z,55.28
2022-11-29T12:40:46.299Z,56.83
2022-11-29T12:43:18.164Z,65.97
2022-11-29T12:45:54.951Z,60.33
2022-11-29T12:48:45.435Z,52.60
2022-11-29T12:51:27.624Z,51.10
2022-11-29T12:53:56.861Z,59.97
2022-11-29T12:56:43.694Z,61.08
2022-11-29T12:59:10.026Z,59.92
2022-11-29T13:01:48.523Z,53.90
2022-11-29T13:04:31.465Z,60.38
2022-11-29T13:07:39.938Z,64.38
2022-11-29T13:10:13.645Z,57.05
2022-11-29T13:12:47.025Z,67.00
2022-11-29T13:15:20.073Z,61.22
2022-11-29T13:18:22.684Z,66.13
2022-11-29T13:21:15.023Z,72.65
2022-11-29T13:26:39.308Z,66.60
2022-11-29T13:29:07.368Z,73.80
2022-11-29T13:31:34.336Z,74.40
2022-11-29T13:34:13.171Z,87.78
2022-11-29T13:36:58.228Z,78.32
2022-11-29T13:39:36.862Z,83.00
2022-11-29T13:42:06.288Z,88.88
2022-11-29T13:44:50.431Z,79.90
2022-11-29T13:47:18.591Z,88.72
2022-11-29T13:50:32.708Z,81.65
2022-11-29T13:53:04.660Z,74.35
2022-11-29T13:55:31.625Z,73.80
2022-11-29T13:58:22.245Z,87.15
2022-11-29T14:00:51.202Z,90.82
2022-11-29T14:03:29.125Z,83.00
2022-11-29T14:06:03.982Z,86.50
2022-11-29T14:08:55.095Z,82.53
2022-11-29T14:11:31.459Z,79.60
2022-11-29T14:14:08.947Z,86.35
2022-11-29T14:16:47.891Z,94.72
2022-11-29T14:19:35.620Z,86.18
2022-11-29T14:22:01.971Z,92.57
2022-11-29T14:24:37.973Z,90.75
2022-11-29T14:27:09.923Z,86.75
2022-11-29T14:29:53.616Z,79.97
2022-11-29T14:32:56.831Z,87.32
2022-11-29T14:35:37.730Z,73.30
2022-11-29T14:38:29.204Z,81.60
2022-11-29T14:41:16.793Z,90.80
2022-11-29T14:43:43.238Z,83.82
2022-11-29T14:46:15.997Z,78.55
2022-11-29T14:48:48.110Z,74.70
2022-11-29T14:51:17.877Z,82.82
2022-11-29T14:53:46.457Z,95.88
2022-11-29T14:56:42.565Z,122.95
2022-11-29T14:59:40.801Z,104.43
2022-11-29T15:02:18.181Z,84.95
2022-11-29T15:04:45.127Z,80.90
2022-11-29T15:07:18.475Z,82.47
2022-11-29T15:09:50.156Z,78.82
2022-11-29T15:12:27.191Z,70.20
2022-11-29T15:15:27.467Z,80.75
2022-11-29T15:18:16.670Z,66.03
2022-11-29T15:21:18.449Z,69.60
2022-11-29T15:23:45.040Z,76.15
2022-11-29T15:26:18.297Z,77.93
2022-11-29T15:28:45.367Z,77.65
2022-11-29T15:31:16.137Z,73.88
2022-11-29T15:33:45.113Z,77.53
2022-11-29T15:36:20.926Z,70.50
2022-11-29T15:38:59.089Z,72.95
2022-11-29T15:41:31.224Z,77.15
2022-11-29T15:43:59.960Z,86.38
2022-11-29T15:46:29.277Z,85.40
2022-11-29T15:49:25.371Z,388.70
2022-11-29T15:51:57.954Z,99.05
2022-11-29T15:54:34.641Z,106.50
2022-11-29T15:57:08.900Z,78.15
2022-11-29T15:59:40.852Z,76.88
2022-11-29T16:02:20.536Z,99.95
2022-11-29T16:04:50.562Z,75.30
2022-11-29T16:07:18.490Z,78.57
2022-11-29T16:09:54.391Z,83.35
2022-11-29T16:12:20.873Z,71.85
2022-11-29T16:14:59.231Z,74.90
2022-11-29T16:17:29.156Z,86.18
2022-11-29T16:20:23.414Z,67.50
2022-11-29T16:23:14.567Z,72.15
2022-11-29T16:25:55.611Z,87.15
2022-11-29T16:28:23.198Z,88.68
2022-11-29T16:30:49.854Z,81.78
2022-11-29T16:33:23.717Z,82.40
2022-11-29T16:35:51.420Z,89.15
2022-11-29T16:38:22.694Z,78.55
2022-11-29T16:41:08.136Z,75.80
2022-11-29T16:43:43.743Z,78.20
2022-11-29T16:46:30.920Z,83.20
2022-11-29T16:49:00.774Z,87.45
2022-11-29T16:51:45.702Z,92.60
2022-11-29T16:54:21.964Z,82.68
2022-11-29T16:56:50.538Z,91.93
2022-11-29T16:59:26.782Z,84.07
2022-11-29T17:01:57.796Z,83.93
2022-11-29T17:04:25.488Z,94.55
2022-11-29T17:06:56.157Z,74.60
2022-11-29T17:09:28.416Z,85.63
2022-11-29T17:11:56.311Z,77.20
2022-11-29T17:14:23.242Z,86.88
2022-11-29T17:16:49.890Z,88.60
2022-11-29T17:19:16.812Z,77.53
2022-11-29T17:21:43.563Z,75.30
2022-11-29T17:24:13.438Z,85.30
2022-11-29T17:26:40.852Z,78.35
2022-11-29T17:29:07.706Z,91.97
2022-11-29T17:31:34.191Z,88.57
2022-11-29T17:34:00.849Z,84.28
2022-11-29T17:36:27.645Z,94.05
2022-11-29T17:38:54.719Z,71.22
2022-11-29T17:41:23.479Z,76.68
2022-11-29T17:43:51.450Z,74.97
2022-11-29T17:46:25.993Z,80.70
2022-11-29T17:48:53.434Z,70.80
2022-11-29T17:51:50.639Z,79.78
2022-11-29T17:54:09.133Z,73.57
2022-11-29T17:56:35.687Z,72.57
2022-11-29T17:59:03.956Z,82.00
2022-11-29T18:01:34.797Z,69.40
2022-11-29T18:04:02.654Z,87.22
2022-11-29T18:06:33.226Z,78.68
2022-11-29T18:09:01.409Z,78.22
2022-11-29T18:11:41.601Z,59.25
2022-11-29T18:14:12.815Z,57.28
2022-11-29T18:16:39.802Z,58.17
2022-11-29T18:19:08.794Z,53.88
2022-11-29T18:21:36.156Z,56.67
2022-11-29T18:24:04.292Z,54.30
2022-11-29T18:26:32.715Z,65.28
2022-11-29T18:28:59.710Z,53.65
2022-11-29T18:31:31.388Z,55.80
2022-11-29T18:34:00.601Z,57.60
2022-11-29T18:36:33.145Z,45.38
2022-11-29T18:39:06.380Z,46.72
2022-11-29T18:41:33.196Z,64.35
2022-11-29T18:44:02.500Z,58.05
2022-11-29T18:46:32.378Z,53.83
2022-11-29T18:49:00.905Z,64.65
2022-11-29T18:51:28.975Z,49.33
2022-11-29T18:53:55.541Z,54.03
2022-11-29T18:56:24.048Z,48.47
2022-11-29T18:58:58.955Z,51.03
2022-11-29T19:01:29.060Z,49.72
2022-11-29T19:03:58.058Z,65.38
2022-11-29T19:06:35.417Z,56.42
2022-11-29T19:09:05.927Z,71.88
2022-11-29T19:11:33.588Z,63.97
2022-11-29T19:14:03.172Z,84.80
2022-11-29T19:16:31.794Z,66.53
2022-11-29T19:19:00.338Z,81.75
2022-11-29T19:21:29.093Z,62.92
2022-11-29T19:23:57.870Z,65.22
2022-11-29T19:26:26.636Z,65.78
2022-11-29T19:28:53.780Z,78.35
2022-11-29T19:31:24.805Z,69.05
2022-11-29T19:33:52.620Z,68.55
2022-11-29T19:36:24.345Z,70.13
2022-11-29T19:38:53.788Z,64.82
2022-11-29T19:41:24.149Z,73.25
2022-11-29T19:43:51.080Z,77.32
2022-11-29T19:46:22.798Z,67.03
2022-11-29T19:48:51.846Z,66.47
2022-11-29T19:51:18.476Z,70.85
2022-11-29T19:53:46.495Z,70.22
2022-11-29T19:56:16.704Z,65.05
2022-11-29T19:58:44.081Z,68.53
2022-11-29T20:01:13.268Z,62.33
2022-11-29T20:03:41.051Z,71.45
2022-11-29T20:06:09.293Z,62.78
2022-11-29T20:08:36.881Z,50.95
2022-11-29T20:11:09.567Z,63.80
2022-11-29T20:13:40.738Z,65.10
2022-11-29T20:16:10.648Z,58.75
2022-11-29T20:18:39.764Z,52.53
2022-11-29T20:21:07.978Z,60.22
2022-11-29T20:23:34.958Z,64.55
2022-11-29T20:26:01.750Z,63.53
2022-11-29T20:28:28.429Z,53.78
2022-11-29T20:30:55.151Z,59.25
2022-11-29T20:33:24.608Z,51.22
2022-11-29T20:35:59.592Z,43.47
2022-11-29T20:38:28.814Z,56.13
2022-11-29T20:41:02.658Z,46.33
2022-11-29T20:43:43.989Z,44.30
2022-11-29T20:46:10.844Z,40.47
2022-11-29T20:48:37.709Z,39.50
2022-11-29T20:51:04.696Z,44.28
2022-11-29T20:53:35.802Z,50.17
2022-11-29T20:56:04.232Z,48.28
2022-11-29T20:58:31.495Z,49.88
2022-11-29T21:00:58.884Z,51.60
2022-11-29T21:03:26.369Z,50.05
2022-11-29T21:05:53.680Z,47.35
2022-11-29T21:08:22.003Z,41.50
2022-11-29T21:10:53.230Z,53.17
2022-11-29T21:13:22.060Z,46.67
2022-11-29T21:15:49.117Z,58.03
2022-11-29T21:18:27.337Z,53.88
2022-11-29T21:21:06.420Z,49.08
2022-11-29T21:23:48.778Z,47.13
2022-11-29T21:26:28.088Z,58.33
2022-11-29T21:29:07.187Z,67.35
2022-11-29T21:31:33.940Z,60.90
2022-11-29T21:34:00.933Z,63.17
2022-11-29T21:36:28.021Z,73.50
2022-11-29T21:38:55.377Z,62.50
2022-11-29T21:41:22.249Z,63.97
2022-11-29T21:44:06.145Z,69.10
2022-11-29T21:46:33.517Z,70.80
2022-11-29T21:49:00.075Z,75.82
2022-11-29T21:51:28.626Z,60.15
2022-11-29T21:53:54.977Z,64.00
2022-11-29T21:56:21.626Z,69.55
2022-11-29T21:58:47.999Z,79.45
2022-11-29T22:01:17.673Z,66.45
2022-11-29T22:03:44.715Z,64.47
2022-11-29T22:06:14.016Z,74.18
2022-11-29T22:08:41.511Z,88.53
2022-11-29T22:11:10.657Z,74.25
2022-11-29T22:13:58.678Z,85.45
2022-11-29T22:16:25.366Z,71.65
2022-11-29T22:18:52.162Z,83.90
2022-11-29T22:21:18.574Z,70.30
2022-11-29T22:23:45.234Z,74.18
2022-11-29T22:26:12.132Z,76.50
2022-11-29T22:28:38.642Z,82.05
2022-11-29T22:31:07.469Z,85.68
2022-11-29T22:33:34.574Z,74.32
2022-11-29T22:36:09.870Z,80.50
2022-11-29T22:38:36.739Z,78.70
2022-11-29T22:41:11.541Z,81.20
2022-11-29T22:43:39.243Z,74.38
2022-11-29T22:46:09.644Z,63.60
2022-11-29T22:48:38.860Z,75.60
2022-11-29T22:51:10.700Z,69.35
2022-11-29T22:53:39.458Z,74.95
2022-11-29T22:56:08.400Z,75.35
2022-11-29T22:58:35.120Z,66.78
2022-11-29T23:01:17.107Z,61.38
2022-11-29T23:03:45.626Z,64.30
2022-11-29T23:06:17.688Z,67.38
2022-11-29T23:08:46.297Z,65.47
2022-11-29T23:11:15.919Z,75.43
2022-11-29T23:13:43.656Z,71.63
2022-11-29T23:16:12.845Z,69.82
2022-11-29T23:18:39.977Z,79.93
2022-11-29T23:21:09.246Z,72.97
2022-11-29T23:23:36.169Z,69.30
2022-11-29T23:26:06.662Z,61.30
2022-11-29T23:28:34.633Z,68.88
2022-11-29T23:31:01.754Z,59.60
2022-11-29T23:33:28.407Z,72.13
2022-11-29T23:36:03.591Z,57.00
2022-11-29T23:40:57.008Z,52.15
2022-11-29T23:43:23.922Z,61.95
2022-11-29T23:45:50.692Z,65.75
2022-11-29T23:48:17.119Z,54.67
2022-11-29T23:50:43.763Z,69.00
2022-11-29T23:53:14.568Z,59.03
2022-11-29T23:55:42.082Z,60.40
2022-11-29T23:58:10.117Z,69.10
